Time;durP1;ratioP1;P1;durP2;ratioP2;P2;SDS_P1;SDS_P2;PMS_P1;PMS_P2;Temp;Humidity;BMP_temperature;BMP_pressure;BME280_temperature;BME280_humidity;BME280_pressure;Samples;Min_cycle;Max_cycle;Signal;HPM_P1;HPM_P2
2021/08/22 00:05:06;;;;;;;9.90;5.10;;;;;;;15.32;100.00;100754.27;718404;1203;115407;-78
2021/08/22 00:20:09;;;;;;;7.65;4.00;;;;;;;15.26;100.00;100747.80;717713;1200;115754;-76
2021/08/22 00:35:11;;;;;;;6.13;3.85;;;;;;;15.22;100.00;100743.81;727485;1200;115201;-77
2021/08/22 00:50:20;;;;;;;6.63;3.60;;;;;;;15.13;100.00;100742.09;714158;1200;114574;-78
2021/08/22 01:05:45;;;;;;;6.25;3.98;;;;;;;15.11;100.00;100736.97;714270;1202;114370;-78
2021/08/22 01:21:05;;;;;;;5.57;3.67;;;;;;;14.89;100.00;100727.71;713967;1174;114282;-78
2021/08/22 01:36:10;;;;;;;5.93;3.18;;;;;;;14.76;100.00;100722.00;714050;1200;114008;-79
2021/08/22 01:51:15;;;;;;;11.47;5.73;;;;;;;14.50;100.00;100717.42;714215;1177;114265;-78
2021/08/22 02:06:39;;;;;;;8.67;5.00;;;;;;;14.19;100.00;100704.59;714192;1200;115762;-78
2021/08/22 02:21:42;;;;;;;7.68;4.43;;;;;;;14.18;100.00;100712.66;714171;1200;114227;-76
2021/08/22 02:36:44;;;;;;;9.95;4.98;;;;;;;13.93;100.00;100713.20;714425;1203;114307;-77
2021/08/22 02:51:46;;;;;;;9.73;6.28;;;;;;;13.71;100.00;100706.52;714138;1203;114123;-77
2021/08/22 03:06:48;;;;;;;9.35;5.20;;;;;;;13.55;100.00;100709.75;713974;1176;115899;-78
2021/08/22 03:21:50;;;;;;;8.30;4.90;;;;;;;13.29;100.00;100720.09;714105;1178;114525;-77
2021/08/22 03:36:53;;;;;;;7.10;3.93;;;;;;;13.08;100.00;100713.18;713823;1202;114314;-77
2021/08/22 03:51:55;;;;;;;5.75;3.90;;;;;;;13.09;100.00;100722.75;714091;1176;114967;-78
2021/08/22 04:06:57;;;;;;;6.53;3.50;;;;;;;12.92;100.00;100723.44;713986;1202;114632;-77
2021/08/22 04:21:59;;;;;;;6.85;4.00;;;;;;;12.95;100.00;100721.37;714240;1203;114230;-76
2021/08/22 04:37:02;;;;;;;4.38;3.18;;;;;;;13.11;100.00;100707.63;714148;1200;114613;-77
2021/08/22 04:52:04;;;;;;;8.10;4.20;;;;;;;13.37;100.00;100722.02;714540;1202;115443;-77
2021/08/22 05:07:06;;;;;;;9.20;5.78;;;;;;;13.94;100.00;100727.23;714425;1193;114956;-78
2021/08/22 05:22:09;;;;;;;8.68;4.93;;;;;;;14.54;100.00;100723.24;714521;1179;114793;-78
2021/08/22 05:37:11;;;;;;;9.98;6.05;;;;;;;15.09;100.00;100720.42;714025;1203;116005;-77
2021/08/22 05:52:14;;;;;;;10.98;7.85;;;;;;;15.80;100.00;100723.84;714275;1200;114228;-78
2021/08/22 06:07:19;;;;;;;10.37;7.03;;;;;;;16.37;100.00;100732.95;713922;1202;115387;-78
2021/08/22 06:22:21;;;;;;;13.03;7.50;;;;;;;16.80;100.00;100733.67;714335;1203;114944;-78
2021/08/22 06:37:23;;;;;;;11.33;7.43;;;;;;;17.57;100.00;100728.97;714244;1199;114591;-79
2021/08/22 06:52:26;;;;;;;10.23;7.50;;;;;;;18.21;100.00;100730.71;715100;1200;114373;-78
2021/08/22 07:07:28;;;;;;;11.28;8.25;;;;;;;19.10;100.00;100728.42;714896;1200;114863;-78
2021/08/22 07:22:31;;;;;;;9.90;6.88;;;;;;;19.73;100.00;100729.91;715338;1200;115400;-80
2021/08/22 07:37:34;;;;;;;11.45;7.45;;;;;;;20.92;100.00;100728.80;715234;1180;114197;-81
2021/08/22 07:52:37;;;;;;;10.78;7.55;;;;;;;21.38;100.00;100738.13;716239;1200;114454;-79
2021/08/22 08:07:39;;;;;;;10.33;7.30;;;;;;;22.73;100.00;100738.47;724279;1177;114594;-85
2021/08/22 08:22:41;;;;;;;8.83;6.03;;;;;;;23.09;96.53;100736.41;717739;1180;113289;-80
2021/08/22 08:37:44;;;;;;;9.08;5.70;;;;;;;23.89;91.85;100746.14;715811;1206;114268;-76
2021/08/22 08:53:06;;;;;;;6.65;4.98;;;;;;;23.65;88.40;100748.48;714730;1201;114526;-80
2021/08/22 09:08:26;;;;;;;6.15;4.73;;;;;;;24.67;83.41;100758.54;715671;1181;115163;-76
2021/08/22 09:23:56;;;;;;;5.23;3.85;;;;;;;25.34;79.33;100754.45;714757;1174;114946;-77
2021/08/22 09:39:37;;;;;;;4.55;3.90;;;;;;;25.96;76.92;100746.36;714817;1177;114044;-76
2021/08/22 09:54:46;;;;;;;5.05;3.80;;;;;;;26.77;75.09;100743.38;714824;1200;114863;-77
2021/08/22 10:10:12;;;;;;;3.20;2.90;;;;;;;26.88;72.00;100742.59;715495;1177;115005;-78
2021/08/22 10:25:20;;;;;;;5.38;3.25;;;;;;;26.60;69.66;100723.56;715765;1177;114347;-78
2021/08/22 10:40:25;;;;;;;3.73;2.70;;;;;;;26.86;68.34;100715.08;716712;1200;113809;-79
2021/08/22 10:55:29;;;;;;;4.08;2.90;;;;;;;26.17;67.19;100725.42;718117;1206;114071;-79
2021/08/22 11:10:31;;;;;;;4.20;2.53;;;;;;;27.07;68.46;100710.17;716032;1200;114312;-80
2021/08/22 11:25:35;;;;;;;4.20;2.53;;;;;;;27.46;65.27;100715.06;715548;1199;115001;-79
2021/08/22 11:40:39;;;;;;;3.00;2.70;;;;;;;27.60;65.53;100702.97;714846;1203;114621;-79
2021/08/22 11:55:42;;;;;;;5.80;2.95;;;;;;;27.25;64.32;100698.42;726354;1182;116171;-80
2021/08/22 12:10:44;;;;;;;3.43;2.88;;;;;;;27.48;63.75;100688.72;714960;1206;113889;-80
2021/08/22 12:25:46;;;;;;;3.27;2.57;;;;;;;28.77;62.46;100682.93;715688;1199;115600;-86
2021/08/22 12:40:50;;;;;;;4.88;3.00;;;;;;;27.42;63.58;100663.53;716556;1179;114786;-78
2021/08/22 12:55:52;;;;;;;3.30;2.73;;;;;;;28.23;63.23;100663.45;717292;1203;113284;-83
2021/08/22 13:10:54;;;;;;;4.58;2.85;;;;;;;28.10;61.94;100665.63;717039;1195;113171;-83
2021/08/22 13:25:57;;;;;;;4.80;2.53;;;;;;;28.15;63.42;100652.24;717310;1189;113777;-83
2021/08/22 13:40:59;;;;;;;3.98;3.13;;;;;;;27.24;63.63;100649.16;718026;1203;115258;-82
2021/08/22 13:56:02;;;;;;;4.33;2.50;;;;;;;27.58;64.05;100637.72;717255;1177;113956;-83
2021/08/22 14:11:05;;;;;;;5.10;3.63;;;;;;;27.54;63.96;100626.63;717028;1199;115680;-79
2021/08/22 14:26:07;;;;;;;4.20;2.80;;;;;;;31.07;60.04;100628.75;715038;1177;113997;-79
2021/08/22 14:41:10;;;;;;;21.63;19.13;;;;;;;31.61;57.72;100621.34;715291;1177;114152;-79
2021/08/22 14:56:13;;;;;;;540.28;455.13;;;;;;;30.57;57.76;100620.06;715413;1176;114184;-80
2021/08/22 15:11:16;;;;;;;30.07;27.00;;;;;;;29.03;59.88;100603.11;715663;1200;114292;-80
2021/08/22 15:26:20;;;;;;;9.85;8.85;;;;;;;28.28;62.01;100597.98;714874;1200;114681;-78
2021/08/22 15:41:23;;;;;;;5.33;4.80;;;;;;;28.24;62.52;100586.05;714973;1200;114823;-77
2021/08/22 15:56:25;;;;;;;13.00;9.18;;;;;;;27.00;63.23;100582.95;714797;1200;113198;-88
2021/08/22 16:11:30;;;;;;;5.18;3.55;;;;;;;26.20;65.71;100586.00;716508;1200;114352;-87
2021/08/22 16:26:33;;;;;;;4.77;3.40;;;;;;;25.88;67.01;100582.74;717168;1177;114482;-86
2021/08/22 16:41:35;;;;;;;9.60;7.28;;;;;;;24.88;68.91;100590.20;717576;1188;114038;-86
2021/08/22 16:56:39;;;;;;;10.73;5.93;;;;;;;24.03;71.85;100604.92;717280;1200;113905;-83
2021/08/22 17:11:43;;;;;;;11.60;9.03;;;;;;;23.24;74.18;100591.70;716583;1177;114414;-80
2021/08/22 17:26:46;;;;;;;14.98;8.63;;;;;;;23.14;74.98;100599.38;717018;1200;115621;-82
2021/08/22 17:41:49;;;;;;;12.47;7.73;;;;;;;22.77;75.73;100614.02;716204;1177;114211;-80
2021/08/22 17:56:52;;;;;;;10.77;5.60;;;;;;;22.27;78.21;100608.26;715110;1197;114010;-82
2021/08/22 18:11:55;;;;;;;8.40;4.53;;;;;;;21.80;80.57;100610.03;714765;1190;114123;-81
2021/08/22 18:26:58;;;;;;;9.73;5.33;;;;;;;21.45;83.30;100633.08;715857;1200;114754;-80
2021/08/22 18:42:03;;;;;;;45.33;17.20;;;;;;;21.67;85.25;100649.02;715539;1178;114835;-78
2021/08/22 18:57:06;;;;;;;41.05;19.65;;;;;;;21.50;86.42;100656.52;714955;1203;114648;-78
2021/08/22 19:12:09;;;;;;;29.25;14.00;;;;;;;21.13;86.48;100650.58;714796;1200;115419;-77
2021/08/22 19:27:12;;;;;;;8.87;5.53;;;;;;;20.73;86.62;100667.13;714784;1200;115335;-79
2021/08/22 19:42:16;;;;;;;17.00;7.83;;;;;;;20.57;88.62;100670.83;715805;1177;114315;-79
2021/08/22 19:57:18;;;;;;;10.23;5.53;;;;;;;20.55;89.68;100661.41;714899;1200;114821;-80
2021/08/22 20:12:20;;;;;;;10.30;6.90;;;;;;;20.21;90.81;100665.59;714804;1200;114882;-80
2021/08/22 20:27:22;;;;;;;17.13;7.95;;;;;;;19.71;91.51;100668.89;714688;1203;113927;-79
2021/08/22 20:42:25;;;;;;;7.75;5.33;;;;;;;19.21;92.87;100673.97;714864;1199;114657;-80
2021/08/22 20:57:27;;;;;;;7.85;4.48;;;;;;;18.74;94.53;100681.20;718558;1192;114397;-80
2021/08/22 21:12:35;;;;;;;8.78;4.78;;;;;;;18.57;96.74;100687.67;715211;1176;113964;-81
2021/08/22 21:27:39;;;;;;;7.30;4.83;;;;;;;18.36;99.05;100690.98;714736;1203;114503;-82
2021/08/22 21:42:42;;;;;;;6.33;3.90;;;;;;;18.39;99.53;100694.09;714407;1177;114376;-80
2021/08/22 21:57:45;;;;;;;9.33;5.73;;;;;;;18.25;100.00;100708.12;714362;1177;113887;-81
2021/08/22 22:12:47;;;;;;;9.87;6.03;;;;;;;18.08;100.00;100713.53;714141;1177;114009;-80
2021/08/22 22:27:50;;;;;;;7.45;4.88;;;;;;;18.00;100.00;100705.63;714283;1177;114247;-81
2021/08/22 22:42:53;;;;;;;8.50;4.70;;;;;;;17.91;100.00;100699.48;714178;1176;114096;-80
2021/08/22 22:57:55;;;;;;;6.57;3.93;;;;;;;17.66;100.00;100697.92;714223;1177;114642;-79
2021/08/22 23:12:58;;;;;;;7.98;4.60;;;;;;;17.50;100.00;100704.12;714057;1200;114025;-80
2021/08/22 23:28:00;;;;;;;9.00;4.43;;;;;;;17.34;100.00;100712.95;714026;1199;114130;-80
2021/08/22 23:43:02;;;;;;;6.93;4.33;;;;;;;17.37;100.00;100708.14;714109;1176;115093;-80
2021/08/22 23:58:05;;;;;;;7.20;4.50;;;;;;;17.38;100.00;100708.95;714189;1178;114320;-79
